Time;durP1;ratioP1;P1;durP2;ratioP2;P2;SDS_P1;SDS_P2;PMS_P1;PMS_P2;Temp;Humidity;BMP_temperature;BMP_pressure;BME280_temperature;BME280_humidity;BME280_pressure;Samples;Min_cycle;Max_cycle;Signal;HPM_P1;HPM_P2
2023/12/06 00:01:06;;;;;;;;;8.00;5.80;;;;;3.10;86.71;99078.38;5039161;28;8836;-94
2023/12/06 00:03:34;;;;;;;;;7.40;6.60;;;;;3.09;86.83;99083.75;5039864;28;8871;-94
2023/12/06 00:06:02;;;;;;;;;7.00;5.60;;;;;3.09;86.35;99081.13;5041059;28;8833;-95
2023/12/06 00:08:30;;;;;;;;;11.20;9.60;;;;;3.09;86.24;99083.75;5038155;28;8894;-92
2023/12/06 00:10:59;;;;;;;;;11.20;9.80;;;;;3.07;86.11;99089.09;5040574;28;8851;-94
2023/12/06 00:13:27;;;;;;;;;10.00;9.40;;;;;3.05;86.53;99084.88;5038335;28;9587;-92
2023/12/06 00:15:55;;;;;;;;;9.00;8.60;;;;;3.05;86.52;99090.13;5039645;28;8836;-94
2023/12/06 00:18:23;;;;;;;;;8.00;8.00;;;;;3.04;86.77;99091.91;5039140;28;8837;-94
2023/12/06 00:20:50;;;;;;;;;5.60;3.40;;;;;3.03;86.17;99095.47;5039136;28;8841;-94
2023/12/06 00:23:18;;;;;;;;;7.80;4.00;;;;;3.02;86.86;99088.53;5038593;28;8853;-94
2023/12/06 00:25:46;;;;;;;;;6.80;5.60;;;;;3.03;86.54;99092.84;5039102;28;8865;-93
2023/12/06 00:28:14;;;;;;;;;13.00;10.40;;;;;3.01;86.65;99088.63;5038364;28;8847;-94
2023/12/06 00:30:42;;;;;;;;;8.20;6.80;;;;;2.98;86.43;99094.06;5038522;28;8817;-93
2023/12/06 00:33:09;;;;;;;;;11.00;8.60;;;;;2.97;86.59;99101.13;5038821;28;8875;-93
2023/12/06 00:35:37;;;;;;;;;9.00;8.60;;;;;2.94;86.73;99103.13;5038015;28;8971;-94
2023/12/06 00:38:05;;;;;;;;;8.20;8.20;;;;;2.93;86.73;99101.41;5039263;28;8846;-94
2023/12/06 00:40:33;;;;;;;;;7.00;6.20;;;;;2.92;86.12;99100.56;5040962;28;8857;-94
2023/12/06 00:43:00;;;;;;;;;5.40;4.80;;;;;2.90;87.04;99099.84;5054261;28;8853;-93
2023/12/06 00:45:28;;;;;;;;;12.40;10.40;;;;;2.90;86.63;99107.72;5052940;28;8889;-93
2023/12/06 00:47:56;;;;;;;;;12.40;11.20;;;;;2.89;86.94;99100.75;5039207;28;8871;-95
2023/12/06 00:50:24;;;;;;;;;9.80;8.20;;;;;2.90;86.67;99096.34;5038985;28;8832;-95
2023/12/06 00:52:52;;;;;;;;;10.80;9.40;;;;;2.90;86.84;99104.22;5038231;28;8843;-93
2023/12/06 00:55:19;;;;;;;;;9.60;7.80;;;;;2.88;86.54;99109.56;5038295;28;8844;-93
2023/12/06 00:57:48;;;;;;;;;6.60;6.00;;;;;2.88;86.82;99114.00;5038535;28;8915;-94
2023/12/06 01:00:16;;;;;;;;;5.20;5.20;;;;;2.87;86.19;99115.78;5036979;28;9530;-94
2023/12/06 01:02:43;;;;;;;;;13.40;11.60;;;;;2.87;86.23;99118.41;5037556;28;8913;-94
2023/12/06 01:05:11;;;;;;;;;7.60;7.00;;;;;2.86;86.83;99116.72;5038113;28;8870;-93
2023/12/06 01:07:39;;;;;;;;;6.80;6.80;;;;;2.85;86.87;99122.91;5037517;28;8880;-94
2023/12/06 01:10:07;;;;;;;;;7.00;6.20;;;;;2.86;86.54;99115.84;5038035;28;8848;-94
2023/12/06 01:12:35;;;;;;;;;9.20;8.20;;;;;2.86;86.82;99129.00;5038074;28;8852;-93
2023/12/06 01:15:03;;;;;;;;;9.40;9.20;;;;;2.90;86.91;99133.16;5038016;28;8860;-93
2023/12/06 01:17:32;;;;;;;;;5.60;5.60;;;;;2.91;86.79;99132.19;5037271;28;8836;-94
2023/12/06 01:20:00;;;;;;;;;9.40;7.40;;;;;2.91;86.89;99135.69;5037126;28;8872;-94
2023/12/06 01:22:28;;;;;;;;;11.20;10.40;;;;;2.92;86.80;99141.78;5038150;28;9545;-94
2023/12/06 01:24:55;;;;;;;;;12.20;10.20;;;;;2.90;86.76;99143.66;5037826;28;9506;-93
2023/12/06 01:27:23;;;;;;;;;8.20;7.60;;;;;2.91;86.65;99146.19;5038224;28;8871;-94
2023/12/06 01:29:52;;;;;;;;;6.80;6.80;;;;;2.92;86.67;99152.28;5037420;28;8824;-94
2023/12/06 01:32:35;;;;;;;;;11.60;9.40;;;;;2.91;86.61;99156.72;5037239;28;8963;-93
2023/12/06 01:35:02;;;;;;;;;7.40;7.00;;;;;2.88;86.65;99164.78;5037832;28;8844;-92
2023/12/06 01:37:30;;;;;;;;;4.00;4.00;;;;;2.85;86.72;99162.34;5037499;28;8851;-93
2023/12/06 01:39:58;;;;;;;;;10.00;9.00;;;;;2.82;86.71;99159.06;5037256;28;8871;-93
2023/12/06 01:42:25;;;;;;;;;3.60;3.60;;;;;2.82;85.94;99166.94;5037423;28;8852;-93
2023/12/06 01:44:53;;;;;;;;;6.60;6.60;;;;;2.80;86.31;99166.19;5037307;28;8866;-94
2023/12/06 01:47:21;;;;;;;;;8.00;6.60;;;;;2.77;86.06;99175.09;5036372;28;8863;-94
2023/12/06 01:49:49;;;;;;;;;9.60;6.20;;;;;2.75;86.25;99170.88;5036315;28;8848;-94
2023/12/06 01:52:17;;;;;;;;;5.60;4.80;;;;;2.73;86.24;99178.84;5036688;28;8843;-94
2023/12/06 01:54:44;;;;;;;;;13.20;8.80;;;;;2.72;86.54;99177.16;5036542;28;8930;-94
2023/12/06 01:57:12;;;;;;;;;6.40;6.00;;;;;2.71;86.94;99177.25;5036579;28;8844;-95
2023/12/06 01:59:40;;;;;;;;;9.00;6.80;;;;;2.69;87.01;99177.34;5036379;28;8840;-94
2023/12/06 02:02:08;;;;;;;;;5.60;5.20;;;;;2.67;86.70;99178.38;5036747;28;8946;-94
2023/12/06 02:04:36;;;;;;;;;11.60;10.00;;;;;2.66;86.38;99188.03;5037070;28;8844;-93
2023/12/06 02:07:03;;;;;;;;;6.20;5.60;;;;;2.64;86.92;99179.41;5036913;28;8860;-94
2023/12/06 02:09:31;;;;;;;;;15.60;12.60;;;;;2.62;86.73;99185.69;5036931;28;8937;-93
2023/12/06 02:11:59;;;;;;;;;3.00;1.00;;;;;2.62;87.03;99181.28;5037842;28;8855;-93
2023/12/06 02:14:27;;;;;;;;;15.00;11.20;;;;;2.62;86.35;99194.44;5045033;28;8840;-94
2023/12/06 02:16:55;;;;;;;;;9.60;8.40;;;;;2.62;86.93;99197.06;5076398;28;8855;-94
2023/12/06 02:19:22;;;;;;;;;12.60;10.00;;;;;2.61;86.60;99205.88;5079115;28;9541;-94
2023/12/06 02:21:50;;;;;;;;;13.00;12.00;;;;;2.64;86.69;99204.84;5079841;28;8897;-94
2023/12/06 02:24:18;;;;;;;;;8.80;8.60;;;;;2.64;86.36;99194.34;5079900;28;8828;-94
2023/12/06 02:26:46;;;;;;;;;9.40;7.40;;;;;2.61;86.46;99200.63;5079928;28;8840;-94
2023/12/06 02:29:14;;;;;;;;;9.20;8.80;;;;;2.60;86.60;99203.34;5079523;28;8848;-94
2023/12/06 02:31:41;;;;;;;;;11.20;7.40;;;;;2.61;86.87;99198.00;5079909;28;8850;-93
2023/12/06 02:34:09;;;;;;;;;9.60;9.60;;;;;2.62;86.91;99204.06;5079176;28;9509;-93
2023/12/06 02:36:37;;;;;;;;;9.00;6.80;;;;;2.60;86.22;99204.19;5079274;28;8825;-94
2023/12/06 02:39:05;;;;;;;;;7.00;6.40;;;;;2.60;86.98;99201.56;5079788;28;8841;-93
2023/12/06 02:41:33;;;;;;;;;14.20;12.00;;;;;2.62;86.42;99202.31;5078619;28;8855;-93
2023/12/06 02:44:01;;;;;;;;;9.40;9.40;;;;;2.61;86.78;99203.25;5079124;28;8859;-93
2023/12/06 02:46:28;;;;;;;;;4.00;4.00;;;;;2.61;86.58;99205.88;5064213;28;8884;-93
2023/12/06 02:48:57;;;;;;;;;7.00;5.40;;;;;2.60;86.39;99212.06;5059519;28;8954;-93
2023/12/06 02:51:25;;;;;;;;;3.60;2.40;;;;;2.56;86.15;99204.47;5059297;28;8838;-93
2023/12/06 02:53:52;;;;;;;;;6.60;6.00;;;;;2.55;86.93;99200.13;5060141;28;8885;-93
2023/12/06 02:56:20;;;;;;;;;7.40;6.20;;;;;2.54;86.46;99209.81;5059867;28;8931;-93
2023/12/06 02:58:48;;;;;;;;;7.00;6.60;;;;;2.53;86.93;99213.38;5060058;28;8856;-93
2023/12/06 03:01:15;;;;;;;;;9.60;6.80;;;;;2.54;86.27;99204.53;5060458;28;8830;-93
2023/12/06 03:03:43;;;;;;;;;9.80;9.00;;;;;2.55;86.96;99205.38;5059645;28;8899;-94
2023/12/06 03:06:11;;;;;;;;;9.00;6.80;;;;;2.54;87.30;99207.19;5058917;28;8988;-93
2023/12/06 03:08:39;;;;;;;;;4.00;4.00;;;;;2.54;86.95;99209.81;5058981;28;9496;-93
2023/12/06 03:11:06;;;;;;;;;2.60;1.60;;;;;2.54;86.91;99215.06;5058973;28;9492;-94
2023/12/06 03:13:34;;;;;;;;;7.00;6.40;;;;;2.56;86.87;99210.56;5058412;28;8891;-92
2023/12/06 03:16:02;;;;;;;;;7.20;5.60;;;;;2.57;86.92;99217.50;5042943;28;8859;-92
2023/12/06 03:18:30;;;;;;;;;6.40;6.00;;;;;2.55;86.78;99213.25;5040739;28;8906;-93
2023/12/06 03:20:57;;;;;;;;;8.60;7.00;;;;;2.51;86.80;99214.38;5038355;28;8946;-94
2023/12/06 03:23:25;;;;;;;;;7.40;6.40;;;;;2.48;86.50;99212.78;5039721;28;9632;-94
2023/12/06 03:25:53;;;;;;;;;6.80;6.80;;;;;2.48;86.98;99219.81;5039318;28;8856;-94
2023/12/06 03:28:21;;;;;;;;;6.40;4.80;;;;;2.47;87.04;99218.97;5039467;28;8890;-93
2023/12/06 03:30:48;;;;;;;;;11.00;10.40;;;;;2.45;86.75;99226.13;5038494;28;8832;-93
2023/12/06 03:33:16;;;;;;;;;6.20;6.20;;;;;2.44;87.18;99229.66;5038978;28;8848;-93
2023/12/06 03:35:44;;;;;;;;;4.80;3.80;;;;;2.42;86.18;99228.91;5038058;28;8852;-93
2023/12/06 03:38:12;;;;;;;;;8.60;8.60;;;;;2.39;86.48;99234.34;5037962;28;8862;-92
2023/12/06 03:40:40;;;;;;;;;6.00;5.20;;;;;2.35;86.50;99227.56;5037935;28;8857;-93
2023/12/06 03:43:07;;;;;;;;;7.20;6.00;;;;;2.31;86.60;99228.69;5037796;28;8853;-93
2023/12/06 03:45:35;;;;;;;;;5.80;4.80;;;;;2.28;86.55;99241.97;5038479;28;8824;-93
2023/12/06 03:48:03;;;;;;;;;9.00;6.40;;;;;2.26;86.83;99238.59;5039806;28;8856;-94
2023/12/06 03:50:30;;;;;;;;;3.20;3.00;;;;;2.25;86.38;99241.31;5039659;28;8886;-94
2023/12/06 03:52:58;;;;;;;;;6.00;6.00;;;;;2.23;86.85;99243.19;5038518;28;8852;-94
2023/12/06 03:55:26;;;;;;;;;3.60;2.20;;;;;2.22;86.89;99244.13;5038826;28;8844;-93
2023/12/06 03:57:53;;;;;;;;;6.40;4.40;;;;;2.20;86.75;99257.31;5038379;28;8840;-94
2023/12/06 04:00:21;;;;;;;;;6.20;5.80;;;;;2.20;87.27;99256.50;5039003;28;8867;-94
2023/12/06 04:02:49;;;;;;;;;3.40;3.40;;;;;2.17;86.59;99251.41;5039263;28;8878;-93
2023/12/06 04:05:17;;;;;;;;;4.00;4.00;;;;;2.17;86.64;99254.03;5038716;28;9498;-94
2023/12/06 04:07:44;;;;;;;;;3.80;3.60;;;;;2.14;86.81;99257.66;5038120;28;8848;-94
2023/12/06 04:10:12;;;;;;;;;8.20;6.40;;;;;2.13;86.46;99255.97;5039210;28;8857;-94
2023/12/06 04:12:40;;;;;;;;;6.80;6.20;;;;;2.12;87.16;99262.16;5038637;28;8946;-94
2023/12/06 04:15:08;;;;;;;;;6.40;6.20;;;;;2.13;86.81;99265.66;5038659;28;8926;-94
2023/12/06 04:17:36;;;;;;;;;9.00;7.40;;;;;2.14;87.07;99259.47;5039681;28;8820;-94
2023/12/06 04:20:05;;;;;;;;;7.00;6.80;;;;;2.14;86.67;99265.53;5038826;28;8840;-94
2023/12/06 04:22:33;;;;;;;;;2.80;2.00;;;;;2.14;86.50;99267.34;5038158;28;8852;-94
2023/12/06 04:25:01;;;;;;;;;6.40;4.80;;;;;2.14;87.31;99273.41;5039574;28;8904;-94
2023/12/06 04:27:29;;;;;;;;;6.20;5.60;;;;;2.15;86.67;99271.66;5054744;28;8890;-94
2023/12/06 04:29:57;;;;;;;;;4.80;3.60;;;;;2.13;87.03;99277.00;5054838;28;8940;-93
2023/12/06 04:32:24;;;;;;;;;9.60;8.00;;;;;2.10;87.31;99271.06;5041539;28;8844;-93
2023/12/06 04:34:52;;;;;;;;;3.80;2.20;;;;;2.06;86.93;99275.63;5046043;28;8919;-94
2023/12/06 04:37:20;;;;;;;;;7.80;6.40;;;;;2.03;87.17;99283.69;5039395;28;8939;-94
2023/12/06 04:39:51;;;;;;;;;6.20;3.80;;;;;2.01;86.77;99287.34;5037684;28;8861;-94
2023/12/06 04:42:18;;;;;;;;;12.00;10.40;;;;;1.99;86.82;99287.41;5037069;28;8852;-94
2023/12/06 04:44:46;;;;;;;;;4.00;3.00;;;;;1.97;86.86;99306.81;5035822;28;8870;-94
2023/12/06 04:47:14;;;;;;;;;9.40;8.20;;;;;1.96;87.64;99300.72;5023118;28;8943;-94
2023/12/06 04:49:42;;;;;;;;;7.40;7.00;;;;;1.94;87.37;99315.72;5038447;28;8903;-93
2023/12/06 04:52:09;;;;;;;;;2.60;2.60;;;;;1.92;87.38;99304.47;5040885;28;8890;-94
2023/12/06 04:54:37;;;;;;;;;6.40;6.00;;;;;1.90;87.11;99323.84;5039840;28;8903;-94
2023/12/06 04:57:05;;;;;;;;;6.40;4.80;;;;;1.86;86.86;99320.53;5038103;28;8854;-94
2023/12/06 04:59:34;;;;;;;;;16.80;12.80;;;;;1.85;87.52;99324.09;5039681;28;8869;-93
2023/12/06 05:02:03;;;;;;;;;9.80;9.40;;;;;1.83;86.83;99325.94;5038529;28;8860;-95
2023/12/06 05:04:30;;;;;;;;;8.00;7.00;;;;;1.80;86.98;99331.34;5039468;28;9003;-94
2023/12/06 05:07:01;;;;;;;;;10.40;9.20;;;;;1.76;86.53;99335.06;5040960;28;8848;-94
2023/12/06 05:09:30;;;;;;;;;7.40;7.00;;;;;1.74;86.43;99330.84;5038964;28;8852;-93
2023/12/06 05:12:00;;;;;;;;;14.40;10.60;;;;;1.70;87.35;99324.06;5035345;28;8910;-94
2023/12/06 05:14:28;;;;;;;;;10.00;9.60;;;;;1.69;86.93;99333.72;5042194;28;8839;-93
2023/12/06 05:16:56;;;;;;;;;10.40;9.60;;;;;1.66;86.95;99333.88;5043803;28;8851;-94
2023/12/06 05:19:24;;;;;;;;;12.20;11.20;;;;;1.65;87.26;99336.56;5046398;28;8964;-94
2023/12/06 05:21:53;;;;;;;;;11.20;9.80;;;;;1.64;87.33;99338.38;5043744;28;8859;-94
2023/12/06 05:24:21;;;;;;;;;8.20;7.00;;;;;1.64;87.57;99340.13;5044006;28;8836;-94
2023/12/06 05:26:48;;;;;;;;;9.20;9.20;;;;;1.62;87.51;99348.09;5044801;28;8839;-94
2023/12/06 05:29:17;;;;;;;;;8.40;8.20;;;;;1.61;87.47;99349.00;5038168;28;8879;-94
2023/12/06 05:31:44;;;;;;;;;9.00;8.60;;;;;1.60;87.16;99347.31;5038392;28;8918;-93
2023/12/06 05:34:12;;;;;;;;;5.00;5.00;;;;;1.59;87.79;99358.75;5037294;28;8864;-93
2023/12/06 05:36:40;;;;;;;;;17.80;16.60;;;;;1.56;86.97;99364.16;5037033;28;8864;-93
2023/12/06 05:39:08;;;;;;;;;4.00;2.20;;;;;1.56;87.63;99364.16;5036977;28;8859;-93
2023/12/06 05:41:37;;;;;;;;;5.20;4.80;;;;;1.55;87.22;99365.09;5036251;28;9513;-93
2023/12/06 05:44:05;;;;;;;;;10.20;9.20;;;;;1.54;87.75;99365.16;5036303;28;8864;-93
2023/12/06 05:46:33;;;;;;;;;12.80;12.40;;;;;1.54;87.56;99371.28;5039174;28;8836;-95
2023/12/06 05:49:01;;;;;;;;;14.20;12.80;;;;;1.54;87.08;99371.28;5038926;28;8853;-94
2023/12/06 05:51:29;;;;;;;;;12.60;11.60;;;;;1.54;87.15;99373.91;5040071;28;8845;-94
2023/12/06 05:53:57;;;;;;;;;9.20;8.00;;;;;1.55;86.99;99372.09;5043583;28;8943;-95
2023/12/06 05:56:24;;;;;;;;;10.00;8.20;;;;;1.55;87.70;99372.97;5041440;28;8851;-95
2023/12/06 05:58:52;;;;;;;;;9.80;9.80;;;;;1.54;87.53;99373.91;5041870;28;9558;-95
2023/12/06 06:01:20;;;;;;;;;1.00;1.00;;;;;1.55;87.63;99377.34;5041218;28;8949;-95
2023/12/06 06:03:48;;;;;;;;;14.60;11.60;;;;;1.55;86.94;99375.59;5042081;28;8841;-93
2023/12/06 06:06:17;;;;;;;;;10.00;9.00;;;;;1.56;87.22;99379.91;5041771;28;8837;-95
2023/12/06 06:08:45;;;;;;;;;8.60;8.00;;;;;1.56;87.46;99382.53;5043661;28;9014;-94
2023/12/06 06:11:14;;;;;;;;;11.60;10.80;;;;;1.56;87.17;99376.41;5044397;28;8829;-95
2023/12/06 06:13:42;;;;;;;;;9.00;7.40;;;;;1.56;87.74;99385.16;5045334;28;8864;-95
2023/12/06 06:16:10;;;;;;;;;12.40;9.40;;;;;1.59;87.45;99386.75;5044961;28;8939;-94
2023/12/06 06:18:38;;;;;;;;;18.00;16.80;;;;;1.60;87.07;99393.69;5041168;28;8860;-94
2023/12/06 06:21:06;;;;;;;;;8.40;8.20;;;;;1.60;86.97;99381.41;5039632;28;8978;-94
2023/12/06 06:23:34;;;;;;;;;8.40;8.40;;;;;1.60;87.11;99381.41;5043339;28;8890;-96
2023/12/06 06:26:02;;;;;;;;;12.00;9.80;;;;;1.60;86.86;99391.09;5047312;28;8837;-95
2023/12/06 06:28:31;;;;;;;;;10.80;9.00;;;;;1.60;86.87;99397.16;5046676;28;8844;-95
2023/12/06 06:31:02;;;;;;;;;9.60;8.40;;;;;1.61;87.49;99392.78;5045373;28;8911;-96
2023/12/06 06:33:30;;;;;;;;;14.20;12.60;;;;;1.62;87.51;99405.81;5044951;28;8840;-95
2023/12/06 06:36:00;;;;;;;;;11.20;8.40;;;;;1.63;86.97;99404.88;5044604;28;8841;-94
2023/12/06 06:38:28;;;;;;;;;8.60;7.40;;;;;1.66;87.45;99409.97;5041555;28;8863;-96
2023/12/06 06:40:56;;;;;;;;;11.60;9.60;;;;;1.67;87.35;99405.56;5041460;28;8863;-94
2023/12/06 06:43:24;;;;;;;;;10.40;10.00;;;;;1.68;87.33;99418.59;5042741;28;8943;-95
2023/12/06 06:45:52;;;;;;;;;15.00;12.20;;;;;1.67;86.80;99414.28;5042537;28;8863;-95
2023/12/06 06:48:20;;;;;;;;;13.00;9.80;;;;;1.69;86.50;99412.44;5043060;28;8871;-94
2023/12/06 06:50:48;;;;;;;;;11.60;10.00;;;;;1.69;86.77;99417.69;5042175;28;8864;-95
2023/12/06 06:53:16;;;;;;;;;10.80;10.80;;;;;1.73;87.08;99415.72;5040769;28;8833;-94
2023/12/06 06:55:44;;;;;;;;;15.40;13.80;;;;;1.72;87.26;99417.50;5037599;28;8878;-94
2023/12/06 06:58:12;;;;;;;;;14.20;13.80;;;;;1.73;86.81;99416.59;5038366;28;8902;-94
2023/12/06 07:00:41;;;;;;;;;13.20;11.60;;;;;1.75;87.02;99422.59;5039002;28;8866;-93
2023/12/06 07:03:11;;;;;;;;;7.40;6.00;;;;;1.76;86.46;99419.03;5039018;28;8906;-95
2023/12/06 07:05:39;;;;;;;;;16.80;13.00;;;;;1.78;87.44;99422.44;5037793;28;8870;-94
2023/12/06 07:08:07;;;;;;;;;15.60;15.60;;;;;1.79;86.70;99423.28;5038839;28;8845;-94
2023/12/06 07:10:37;;;;;;;;;18.20;16.20;;;;;1.80;87.44;99425.84;5036012;28;8856;-94
2023/12/06 07:13:04;;;;;;;;;18.60;17.60;;;;;1.81;87.00;99426.69;5034297;28;8852;-94
2023/12/06 07:15:32;;;;;;;;;16.20;15.60;;;;;1.81;87.39;99438.03;5036767;28;8990;-94
2023/12/06 07:18:01;;;;;;;;;16.40;14.20;;;;;1.82;86.75;99434.47;5036972;28;8879;-94
2023/12/06 07:20:29;;;;;;;;;8.40;7.00;;;;;1.83;86.87;99441.41;5036611;28;8848;-94
2023/12/06 07:23:10;;;;;;;;;12.40;10.40;;;;;1.85;86.99;99442.19;5036291;28;8871;-93
2023/12/06 07:25:38;;;;;;;;;12.00;9.60;;;;;1.89;86.60;99451.59;5036149;28;9600;-93
2023/12/06 07:28:05;;;;;;;;;14.20;14.00;;;;;1.92;86.56;99456.69;5036236;28;8848;-94
2023/12/06 07:30:34;;;;;;;;;13.20;11.80;;;;;1.92;86.93;99456.69;5036392;28;9301;-94
2023/12/06 07:33:02;;;;;;;;;12.60;12.00;;;;;1.92;86.56;99450.59;5036436;28;8860;-93
2023/12/06 07:35:30;;;;;;;;;9.40;9.20;;;;;1.93;86.89;99458.38;5036685;28;8860;-94
2023/12/06 07:37:58;;;;;;;;;14.80;13.40;;;;;1.95;86.75;99461.75;5036815;28;9575;-94
2023/12/06 07:40:26;;;;;;;;;7.00;5.40;;;;;1.96;86.81;99471.34;5036713;28;8848;-94
2023/12/06 07:42:54;;;;;;;;;14.20;12.00;;;;;1.98;86.45;99474.72;5035307;28;8860;-93
2023/12/06 07:45:22;;;;;;;;;11.80;11.80;;;;;1.98;87.08;99477.34;5042675;28;8848;-94
2023/12/06 07:47:51;;;;;;;;;17.60;14.80;;;;;1.99;87.00;99486.91;5041689;28;8840;-93
2023/12/06 07:50:20;;;;;;;;;14.00;12.80;;;;;2.00;87.40;99482.53;5041134;28;8844;-94
2023/12/06 07:52:50;;;;;;;;;14.40;10.80;;;;;2.02;86.45;99484.16;5045626;28;8971;-93
2023/12/06 07:55:18;;;;;;;;;12.40;9.40;;;;;2.03;86.85;99483.22;5036105;28;8872;-94
2023/12/06 07:57:50;;;;;;;;;9.60;7.00;;;;;2.05;86.60;99491.84;5036449;28;8863;-94
2023/12/06 08:00:19;;;;;;;;;18.20;14.40;;;;;2.06;86.55;99487.47;5036412;28;8862;-94
2023/12/06 08:02:47;;;;;;;;;13.80;13.20;;;;;2.08;87.08;99482.97;5035188;28;8860;-94
2023/12/06 08:05:19;;;;;;;;;13.00;12.40;;;;;2.08;86.43;99488.22;5035744;28;8879;-94
2023/12/06 08:07:49;;;;;;;;;14.80;12.60;;;;;2.10;86.49;99495.09;5035643;28;8848;-94
2023/12/06 08:10:22;;;;;;;;;13.60;13.60;;;;;2.12;86.33;99501.09;5035753;28;8872;-93
2023/12/06 08:12:53;;;;;;;;;16.60;13.60;;;;;2.14;86.60;99507.09;5045863;28;8832;-94
2023/12/06 08:15:22;;;;;;;;;9.00;7.80;;;;;2.17;86.49;99512.22;5046977;28;9502;-94
2023/12/06 08:17:50;;;;;;;;;15.40;12.20;;;;;2.19;86.98;99512.97;5036764;28;9549;-94
2023/12/06 08:20:18;;;;;;;;;12.20;10.80;;;;;2.22;86.88;99517.22;5036461;28;9565;-94
2023/12/06 08:22:46;;;;;;;;;15.00;15.00;;;;;2.24;86.54;99516.22;5035975;28;8961;-94
2023/12/06 08:25:14;;;;;;;;;6.20;6.20;;;;;2.26;86.97;99510.91;5035109;28;8849;-93
2023/12/06 08:27:43;;;;;;;;;12.40;11.40;;;;;2.28;87.06;99512.47;5035196;28;8934;-94
2023/12/06 08:30:11;;;;;;;;;7.40;4.80;;;;;2.29;86.62;99522.06;5036033;28;8856;-95
2023/12/06 08:32:39;;;;;;;;;20.60;15.60;;;;;2.30;87.16;99517.66;5037354;28;8844;-94
2023/12/06 08:35:07;;;;;;;;;14.00;13.20;;;;;2.32;86.66;99531.56;5040356;28;8860;-95
2023/12/06 08:37:35;;;;;;;;;11.80;11.80;;;;;2.33;86.60;99536.75;5040612;28;8852;-95
2023/12/06 08:40:07;;;;;;;;;21.00;16.40;;;;;2.34;86.64;99521.84;5042812;28;8875;-95
2023/12/06 08:42:35;;;;;;;;;15.00;12.40;;;;;2.35;86.44;99529.63;5045803;28;8837;-95
2023/12/06 08:45:02;;;;;;;;;17.60;15.00;;;;;2.38;87.07;99539.13;5045289;28;8840;-96
2023/12/06 08:47:32;;;;;;;;;10.80;9.80;;;;;2.39;86.30;99533.78;5048531;28;8863;-95
2023/12/06 08:50:00;;;;;;;;;13.20;12.00;;;;;2.39;86.06;99536.41;5046652;28;8825;-95
2023/12/06 08:52:33;;;;;;;;;4.00;3.20;;;;;2.40;86.86;99537.25;5044878;28;8866;-95
2023/12/06 08:55:01;;;;;;;;;16.40;16.40;;;;;2.41;86.43;99533.72;5045341;28;8883;-94
2023/12/06 08:57:29;;;;;;;;;16.20;15.00;;;;;2.42;86.70;99540.66;5043783;28;8855;-94
2023/12/06 08:59:57;;;;;;;;;15.00;13.00;;;;;2.43;86.84;99537.09;5040016;28;8839;-95
2023/12/06 09:02:25;;;;;;;;;17.60;16.20;;;;;2.44;86.25;99538.78;5038299;28;8840;-95
2023/12/06 09:04:55;;;;;;;;;13.80;12.40;;;;;2.45;85.97;99541.34;5039793;28;8863;-94
2023/12/06 09:07:22;;;;;;;;;16.40;14.20;;;;;2.45;86.74;99541.34;5036670;28;8839;-94
2023/12/06 09:09:51;;;;;;;;;13.80;12.40;;;;;2.46;86.77;99536.94;5036719;28;8906;-95
2023/12/06 09:12:20;;;;;;;;;12.00;12.00;;;;;2.48;86.11;99542.94;5035065;28;8851;-95
2023/12/06 09:14:48;;;;;;;;;13.60;13.60;;;;;2.48;86.64;99551.69;5049061;28;8971;-94
2023/12/06 09:17:16;;;;;;;;;13.40;12.80;;;;;2.49;86.23;99550.75;5075052;28;8875;-94
2023/12/06 09:19:44;;;;;;;;;14.80;14.80;;;;;2.51;86.52;99548.88;5074763;28;8875;-93
2023/12/06 09:22:12;;;;;;;;;12.40;12.00;;;;;2.52;86.53;99545.34;5076698;28;8836;-94
2023/12/06 09:24:40;;;;;;;;;12.00;11.60;;;;;2.53;86.57;99548.81;5075034;28;9256;-94
2023/12/06 09:27:08;;;;;;;;;7.00;5.60;;;;;2.53;86.31;99554.06;5074377;28;9152;-94
2023/12/06 09:29:35;;;;;;;;;14.60;13.80;;;;;2.55;86.27;99562.69;5075201;28;8933;-94
2023/12/06 09:32:04;;;;;;;;;11.20;9.80;;;;;2.56;86.85;99559.19;5075293;28;8843;-94
2023/12/06 09:34:32;;;;;;;;;15.20;13.00;;;;;2.57;86.31;99555.63;5075753;28;8866;-94
2023/12/06 09:37:06;;;;;;;;;12.40;10.80;;;;;2.58;86.41;99558.13;5076418;28;8962;-94
2023/12/06 09:39:34;;;;;;;;;9.60;9.20;;;;;2.61;86.72;99568.50;5075181;28;8864;-93
2023/12/06 09:42:02;;;;;;;;;12.20;12.20;;;;;2.64;86.36;99562.25;5075688;28;8844;-94
2023/12/06 09:44:31;;;;;;;;;5.80;5.80;;;;;2.64;86.48;99568.31;5076015;28;8864;-94
2023/12/06 09:46:59;;;;;;;;;4.00;4.00;;;;;2.66;86.84;99569.09;5076514;28;8842;-94
2023/12/06 09:49:27;;;;;;;;;12.00;10.20;;;;;2.67;86.39;99572.56;5076586;28;8847;-92
2023/12/06 09:51:55;;;;;;;;;11.20;9.80;;;;;2.69;86.53;99579.44;5077292;28;8847;-95
2023/12/06 09:54:22;;;;;;;;;6.80;6.80;;;;;2.70;85.91;99573.25;5077233;28;8863;-94
2023/12/06 09:56:50;;;;;;;;;15.20;11.60;;;;;2.73;86.09;99585.38;5074882;28;8866;-94
2023/12/06 09:59:18;;;;;;;;;9.40;7.80;;;;;2.75;86.28;99581.75;5076481;28;8840;-94
2023/12/06 10:01:46;;;;;;;;;15.80;15.80;;;;;2.78;86.65;99581.56;5076649;28;8836;-94
2023/12/06 10:04:14;;;;;;;;;15.00;15.00;;;;;2.82;86.50;99585.75;5075664;28;8855;-95
2023/12/06 10:06:42;;;;;;;;;12.60;12.60;;;;;2.83;86.62;99587.44;5077782;28;8843;-95
2023/12/06 10:09:10;;;;;;;;;8.80;7.40;;;;;2.86;86.34;99589.91;5078417;28;8836;-96
2023/12/06 10:11:38;;;;;;;;;9.60;9.40;;;;;2.89;86.31;99594.97;5078170;28;8844;-94
2023/12/06 10:14:06;;;;;;;;;14.20;12.80;;;;;2.93;86.13;99596.53;5076698;28;8836;-95
2023/12/06 10:16:34;;;;;;;;;12.80;11.40;;;;;2.97;86.41;99589.31;5078304;28;9506;-95
2023/12/06 10:19:03;;;;;;;;;7.20;6.60;;;;;3.00;86.04;99587.38;5076561;28;8891;-94
2023/12/06 10:21:31;;;;;;;;;13.00;10.80;;;;;3.04;85.97;99588.88;5076678;28;8851;-94
2023/12/06 10:24:00;;;;;;;;;6.60;5.60;;;;;3.09;86.63;99597.38;5076239;28;8979;-95
2023/12/06 10:26:30;;;;;;;;;15.80;13.80;;;;;3.12;86.04;99599.84;5077589;28;8909;-94
2023/12/06 10:28:59;;;;;;;;;18.80;18.00;;;;;3.15;86.48;99598.81;5081859;28;8867;-92
2023/12/06 10:31:27;;;;;;;;;12.20;10.40;;;;;3.18;86.24;99602.13;5079586;28;8894;-95
2023/12/06 10:33:56;;;;;;;;;12.40;10.00;;;;;3.22;85.87;99600.16;5083740;28;8889;-94
2023/12/06 10:36:24;;;;;;;;;9.20;9.20;;;;;3.24;86.04;99603.59;5076371;28;8858;-95
2023/12/06 10:38:52;;;;;;;;;7.80;6.00;;;;;3.28;86.23;99605.97;5078399;28;8848;-95
2023/12/06 10:41:20;;;;;;;;;16.20;13.80;;;;;3.30;85.51;99604.09;5084179;28;8840;-95
2023/12/06 10:43:49;;;;;;;;;15.40;12.20;;;;;3.32;86.27;99594.31;5080731;28;9538;-95
2023/12/06 10:46:17;;;;;;;;;11.20;10.00;;;;;3.36;85.84;99601.13;5070065;28;8865;-96
2023/12/06 10:48:45;;;;;;;;;16.60;13.20;;;;;3.40;86.10;99601.78;5062122;28;8846;-94
2023/12/06 10:51:13;;;;;;;;;11.80;9.80;;;;;3.42;86.33;99592.84;5062778;28;8846;-95
2023/12/06 10:53:41;;;;;;;;;20.60;14.80;;;;;3.46;85.94;99590.91;5063086;28;8861;-95
2023/12/06 10:56:12;;;;;;;;;10.80;9.20;;;;;3.49;85.98;99586.31;5059937;28;8858;-96
2023/12/06 10:58:39;;;;;;;;;12.80;12.80;;;;;3.53;85.80;99579.09;5057386;28;9519;-94
2023/12/06 11:01:07;;;;;;;;;11.20;11.20;;;;;3.56;85.97;99587.66;5057562;28;8842;-94
2023/12/06 11:03:36;;;;;;;;;13.00;12.00;;;;;3.59;85.56;99584.88;5056817;28;8850;-94
2023/12/06 11:06:04;;;;;;;;;15.60;12.60;;;;;3.64;85.63;99584.59;5056570;28;8865;-95
2023/12/06 11:08:32;;;;;;;;;12.20;11.20;;;;;3.67;85.85;99590.53;5056408;28;9496;-95
2023/12/06 11:11:00;;;;;;;;;12.40;12.00;;;;;3.72;85.70;99580.56;5057739;28;8935;-95
2023/12/06 11:13:28;;;;;;;;;12.60;12.40;;;;;3.77;85.37;99588.25;5056943;28;8838;-95
2023/12/06 11:15:56;;;;;;;;;12.60;10.40;;;;;3.80;85.20;99592.38;5040610;28;8844;-94
2023/12/06 11:18:25;;;;;;;;;14.60;13.80;;;;;3.83;85.81;99588.72;5036114;28;8845;-94
2023/12/06 11:20:54;;;;;;;;;9.60;8.60;;;;;3.85;85.44;99595.59;5036027;28;8844;-95
2023/12/06 11:23:22;;;;;;;;;8.60;8.60;;;;;3.88;85.55;99597.22;5035796;28;9014;-94
2023/12/06 11:25:54;;;;;;;;;15.60;15.60;;;;;3.89;85.44;99597.09;5035632;28;8899;-94
2023/12/06 11:28:22;;;;;;;;;15.80;14.00;;;;;3.92;85.18;99594.31;5036457;28;8867;-93
2023/12/06 11:30:50;;;;;;;;;17.60;15.00;;;;;3.93;85.14;99593.38;5037189;28;8987;-95
2023/12/06 11:33:19;;;;;;;;;7.80;6.80;;;;;3.95;85.70;99588.03;5037415;28;8861;-94
2023/12/06 11:35:47;;;;;;;;;10.40;10.40;;;;;3.97;85.58;99589.59;5037258;28;8864;-95
2023/12/06 11:38:15;;;;;;;;;8.80;6.80;;;;;4.01;85.00;99585.88;5036466;28;8844;-94
2023/12/06 11:40:43;;;;;;;;;12.00;10.80;;;;;4.04;85.01;99590.09;5038006;28;8853;-94
2023/12/06 11:43:11;;;;;;;;;15.40;15.00;;;;;4.07;85.27;99589.91;5036432;28;8841;-93
2023/12/06 11:45:39;;;;;;;;;13.00;13.00;;;;;4.07;85.04;99600.44;5035787;28;8848;-95